createdAt,value
2023-05-19T03:45:24.715Z,12.86
2023-05-19T03:48:28.591Z,12.86
2023-05-19T03:51:38.542Z,12.38
2023-05-19T03:54:42.773Z,12.42
2023-05-19T03:57:45.222Z,12.45
2023-05-19T04:00:47.973Z,12.44
2023-05-19T04:03:50.801Z,12.44
2023-05-19T04:06:53.302Z,12.47
2023-05-19T04:09:55.988Z,12.56
2023-05-19T04:12:58.448Z,12.62
2023-05-19T04:16:01.966Z,12.72
2023-05-19T04:19:04.548Z,12.72
2023-05-19T04:22:07.343Z,12.75
2023-05-19T04:25:09.968Z,12.84
2023-05-19T04:28:13.734Z,13.10
2023-05-19T04:31:16.321Z,13.24
2023-05-19T04:34:19.894Z,13.38
2023-05-19T04:37:22.754Z,13.45
2023-05-19T04:40:25.758Z,13.54
2023-05-19T04:43:28.374Z,13.82
2023-05-19T04:46:31.187Z,13.84
2023-05-19T04:49:38.753Z,13.89
2023-05-19T04:52:47.670Z,14.05
2023-05-19T04:55:50.300Z,14.18
2023-05-19T04:58:53.806Z,14.26
2023-05-19T05:01:57.240Z,14.43
2023-05-19T05:05:00.194Z,14.49
2023-05-19T05:08:03.170Z,14.58
2023-05-19T05:11:06.652Z,14.55
2023-05-19T05:14:09.717Z,14.48
2023-05-19T05:17:13.791Z,14.73
2023-05-19T05:20:19.574Z,14.86
2023-05-19T05:23:22.635Z,14.96
2023-05-19T05:26:29.953Z,14.98
2023-05-19T05:29:32.677Z,15.17
2023-05-19T05:32:36.032Z,15.19
2023-05-19T05:35:41.979Z,15.19
2023-05-19T05:38:45.249Z,15.20
2023-05-19T05:41:48.050Z,15.30
2023-05-19T05:44:50.705Z,15.32
2023-05-19T05:47:53.746Z,15.49
2023-05-19T05:50:57.296Z,15.77
2023-05-19T05:54:01.977Z,16.04
2023-05-19T05:57:06.342Z,16.16
2023-05-19T06:00:15.810Z,15.90
2023-05-19T06:03:18.157Z,15.85
2023-05-19T06:06:21.528Z,15.87
2023-05-19T06:09:24.099Z,15.89
2023-05-19T06:12:27.322Z,15.87
2023-05-19T06:15:30.305Z,16.04
2023-05-19T06:18:34.633Z,16.20
2023-05-19T06:21:37.226Z,16.46
2023-05-19T06:24:40.264Z,16.67
2023-05-19T06:27:44.180Z,16.69
2023-05-19T06:30:47.161Z,16.68
2023-05-19T06:33:49.987Z,16.47
2023-05-19T06:36:52.823Z,16.52
2023-05-19T06:39:55.437Z,16.85
2023-05-19T06:42:58.616Z,16.93
2023-05-19T06:46:03.121Z,17.03
2023-05-19T06:49:06.958Z,17.07
2023-05-19T06:52:10.153Z,16.96
2023-05-19T06:55:12.893Z,17.02
2023-05-19T06:58:16.031Z,17.11
2023-05-19T07:01:19.031Z,17.41
2023-05-19T07:04:22.055Z,17.67
2023-05-19T07:07:25.046Z,17.67
2023-05-19T07:10:28.783Z,17.86
2023-05-19T07:13:32.885Z,18.06
2023-05-19T07:16:35.690Z,18.29
2023-05-19T07:19:38.379Z,18.20
2023-05-19T07:22:40.833Z,18.08
2023-05-19T07:25:43.691Z,18.11
2023-05-19T07:28:46.142Z,18.45
2023-05-19T07:31:54.032Z,18.57
2023-05-19T07:34:56.762Z,18.70
2023-05-19T07:37:59.783Z,18.67
2023-05-19T07:41:03.624Z,18.71
2023-05-19T07:44:07.948Z,18.84
2023-05-19T07:47:10.690Z,18.86
2023-05-19T07:50:13.627Z,19.20
2023-05-19T07:53:16.725Z,19.19
2023-05-19T07:56:20.587Z,19.01
2023-05-19T07:59:24.482Z,18.97
2023-05-19T08:02:27.617Z,19.21
2023-05-19T08:05:30.854Z,19.44
2023-05-19T08:08:36.606Z,19.59
2023-05-19T08:11:39.546Z,19.49
2023-05-19T08:14:42.504Z,19.59
2023-05-19T08:17:45.502Z,19.84
2023-05-19T08:20:48.007Z,19.57
2023-05-19T08:23:51.212Z,19.26
2023-05-19T08:26:53.730Z,19.17
2023-05-19T08:29:57.373Z,19.31
2023-05-19T08:33:02.774Z,19.41
2023-05-19T08:36:06.590Z,19.30
2023-05-19T08:39:09.071Z,19.19
2023-05-19T08:42:12.392Z,19.25
2023-05-19T08:45:15.390Z,19.03
2023-05-19T08:48:19.517Z,18.80
2023-05-19T08:51:39.234Z,18.74
2023-05-19T08:54:51.121Z,18.84
2023-05-19T08:57:56.295Z,19.07
2023-05-19T09:01:01.629Z,19.16
2023-05-19T09:04:05.052Z,19.24
2023-05-19T09:07:09.481Z,19.86
2023-05-19T09:10:16.333Z,20.43
2023-05-19T09:13:21.454Z,21.26
2023-05-19T09:16:27.692Z,21.90
2023-05-19T09:19:31.998Z,22.12
2023-05-19T09:22:37.156Z,22.42
2023-05-19T09:26:07.421Z,22.29
2023-05-19T09:29:17.170Z,21.77
2023-05-19T09:32:27.138Z,21.51
2023-05-19T09:35:30.009Z,21.43
2023-05-19T09:38:33.005Z,21.47
2023-05-19T09:41:35.629Z,21.57
2023-05-19T09:44:38.945Z,21.63
2023-05-19T09:47:42.174Z,21.73
2023-05-19T09:50:46.634Z,21.95
2023-05-19T09:53:49.439Z,22.02
2023-05-19T09:57:04.359Z,22.22
2023-05-19T10:00:13.740Z,22.34
2023-05-19T10:03:17.796Z,22.49
2023-05-19T10:06:22.135Z,22.50
2023-05-19T10:09:25.876Z,22.49
2023-05-19T10:12:29.148Z,22.42
2023-05-19T10:15:33.050Z,22.38
2023-05-19T10:18:40.249Z,22.42
2023-05-19T10:21:42.806Z,22.54
2023-05-19T10:24:45.429Z,22.22
2023-05-19T10:28:01.824Z,22.36
2023-05-19T10:31:08.316Z,22.29
2023-05-19T10:34:33.308Z,22.13
2023-05-19T10:38:00.986Z,21.85
2023-05-19T10:41:03.352Z,21.65
2023-05-19T10:44:28.122Z,21.37
2023-05-19T10:47:32.457Z,21.10
2023-05-19T10:50:38.912Z,21.16
2023-05-19T10:53:51.570Z,21.45
2023-05-19T10:56:56.790Z,21.80
2023-05-19T11:00:11.016Z,22.02
2023-05-19T11:03:15.764Z,22.12
2023-05-19T11:06:29.606Z,22.31
2023-05-19T11:09:40.418Z,22.24
2023-05-19T11:12:45.945Z,22.49
2023-05-19T11:15:49.903Z,22.45
2023-05-19T11:18:55.986Z,22.42
2023-05-19T11:22:12.884Z,22.82
2023-05-19T11:25:38.265Z,22.59
2023-05-19T11:28:42.029Z,22.49
2023-05-19T11:31:45.003Z,22.56
2023-05-19T11:34:50.061Z,22.76
2023-05-19T11:37:54.800Z,22.65
2023-05-19T11:40:57.675Z,22.36
2023-05-19T11:44:00.242Z,22.16
2023-05-19T11:47:03.364Z,22.00
2023-05-19T11:50:05.996Z,22.27
2023-05-19T11:53:13.119Z,22.44
2023-05-19T11:56:15.603Z,22.72
2023-05-19T11:59:18.330Z,22.65
2023-05-19T12:02:26.023Z,22.29
2023-05-19T12:05:29.364Z,22.39
2023-05-19T12:08:31.941Z,22.89
2023-05-19T12:11:34.789Z,23.09
2023-05-19T12:14:37.790Z,23.09
2023-05-19T12:17:41.126Z,23.16
2023-05-19T12:20:44.198Z,22.83
2023-05-19T12:23:47.217Z,22.57
2023-05-19T12:26:50.466Z,22.53
2023-05-19T12:29:55.637Z,22.60
2023-05-19T12:32:58.346Z,22.66
2023-05-19T12:36:01.406Z,22.72
2023-05-19T12:39:06.146Z,22.71
2023-05-19T12:42:10.921Z,22.62
2023-05-19T12:45:13.679Z,22.56
2023-05-19T12:48:17.196Z,22.64
2023-05-19T12:51:20.140Z,22.80
2023-05-19T12:54:23.574Z,22.91
2023-05-19T12:57:26.693Z,22.97
2023-05-19T13:00:32.418Z,22.74
2023-05-19T13:03:41.872Z,23.01
2023-05-19T13:06:44.877Z,23.11
2023-05-19T13:09:48.207Z,23.10
2023-05-19T13:12:51.859Z,23.26
2023-05-19T13:15:54.220Z,23.48
2023-05-19T13:18:57.042Z,23.27
2023-05-19T13:21:59.739Z,23.11
2023-05-19T13:25:06.322Z,22.99
2023-05-19T13:28:09.713Z,22.77
2023-05-19T13:31:12.411Z,22.38
2023-05-19T13:34:14.903Z,22.58
2023-05-19T13:37:17.777Z,22.63
2023-05-19T13:40:20.377Z,22.51
2023-05-19T13:43:23.130Z,22.55
2023-05-19T13:46:36.623Z,22.63
2023-05-19T13:49:47.221Z,23.01
2023-05-19T13:52:49.696Z,22.96
2023-05-19T13:55:55.111Z,22.87
2023-05-19T13:58:57.893Z,22.68
2023-05-19T14:02:00.982Z,22.70
2023-05-19T14:05:04.494Z,22.66
2023-05-19T14:08:06.866Z,22.58
2023-05-19T14:11:09.467Z,22.43
2023-05-19T14:14:11.881Z,22.56
2023-05-19T14:17:14.511Z,22.40
2023-05-19T14:20:17.048Z,22.40
2023-05-19T14:23:21.459Z,22.48
2023-05-19T14:26:23.996Z,22.66
2023-05-19T14:29:26.693Z,22.98
2023-05-19T14:32:30.407Z,22.89
2023-05-19T14:35:33.402Z,22.75
2023-05-19T14:38:36.369Z,22.52
2023-05-19T14:41:39.002Z,22.71
2023-05-19T14:44:41.435Z,22.89
2023-05-19T14:47:44.210Z,23.05
2023-05-19T14:50:48.324Z,23.16
2023-05-19T14:53:51.379Z,23.19
2023-05-19T14:56:53.772Z,23.41
2023-05-19T14:59:58.869Z,23.39
2023-05-19T15:03:01.429Z,23.30
2023-05-19T15:06:08.013Z,23.18
2023-05-19T15:09:15.361Z,23.04
2023-05-19T15:12:19.118Z,22.93
2023-05-19T15:15:21.524Z,22.57
2023-05-19T15:18:24.196Z,22.52
2023-05-19T15:21:26.664Z,22.86
2023-05-19T15:24:29.904Z,22.95
2023-05-19T15:27:32.301Z,23.09
2023-05-19T15:30:37.610Z,23.36
2023-05-19T15:33:40.223Z,23.51
2023-05-19T15:36:45.445Z,23.42
2023-05-19T15:39:47.902Z,23.35
2023-05-19T15:42:50.826Z,23.22
